createdAt,value
2018-09-14T00:00:18.704Z,12.36
2018-09-14T00:01:18.703Z,12.38
2018-09-14T00:02:18.697Z,12.36
2018-09-14T00:03:18.690Z,12.43
2018-09-14T00:04:18.685Z,12.40
2018-09-14T00:05:18.674Z,12.34
2018-09-14T00:06:18.673Z,12.49
2018-09-14T00:07:18.667Z,12.43
2018-09-14T00:08:18.663Z,12.41
2018-09-14T00:09:18.651Z,12.44
2018-09-14T00:10:18.645Z,12.46
2018-09-14T00:11:18.637Z,12.52
2018-09-14T00:12:18.633Z,12.44
2018-09-14T00:13:18.631Z,12.44
2018-09-14T00:14:18.624Z,12.44
2018-09-14T00:15:18.619Z,12.49
2018-09-14T00:16:18.616Z,12.36
2018-09-14T00:17:18.601Z,12.41
2018-09-14T00:18:18.596Z,12.41
2018-09-14T00:19:18.590Z,12.37
2018-09-14T00:20:18.583Z,12.31
2018-09-14T00:21:18.581Z,12.29
2018-09-14T00:22:18.579Z,12.33
2018-09-14T00:23:18.564Z,12.26
2018-09-14T00:24:18.561Z,12.36
2018-09-14T00:25:18.558Z,12.29
2018-09-14T00:26:18.557Z,12.23
2018-09-14T00:27:18.546Z,12.19
2018-09-14T00:28:18.540Z,12.23
2018-09-14T00:29:18.532Z,12.19
2018-09-14T00:30:18.522Z,12.25
2018-09-14T00:31:18.516Z,12.19
2018-09-14T00:32:18.510Z,12.22
2018-09-14T00:33:18.509Z,12.23
2018-09-14T00:34:18.503Z,12.21
2018-09-14T00:35:18.496Z,12.19
2018-09-14T00:36:18.489Z,12.13
2018-09-14T00:37:18.481Z,12.13
2018-09-14T00:38:18.473Z,12.00
2018-09-14T00:39:18.471Z,11.97
2018-09-14T00:40:18.465Z,11.98
2018-09-14T00:41:18.454Z,12.11
2018-09-14T00:42:18.448Z,12.04
2018-09-14T00:43:18.443Z,12.01
2018-09-14T00:44:18.436Z,12.11
2018-09-14T00:45:18.448Z,12.08
2018-09-14T00:46:18.429Z,12.05
2018-09-14T00:47:18.423Z,12.05
2018-09-14T00:48:18.416Z,12.03
2018-09-14T00:49:18.406Z,12.03
2018-09-14T00:50:18.398Z,12.04
2018-09-14T00:51:18.392Z,12.03
2018-09-14T00:52:18.386Z,12.05
2018-09-14T00:53:18.384Z,11.94
2018-09-14T00:54:18.378Z,11.98
2018-09-14T00:55:18.375Z,11.97
2018-09-14T00:56:18.362Z,11.98
2018-09-14T00:57:18.358Z,11.98
2018-09-14T00:58:18.353Z,11.96
2018-09-14T00:59:18.348Z,12.00
2018-09-14T01:00:18.342Z,11.96
2018-09-14T01:01:18.330Z,11.93
2018-09-14T01:02:18.324Z,11.88
2018-09-14T01:03:18.320Z,11.94
2018-09-14T01:04:18.314Z,11.88
2018-09-14T01:05:18.309Z,11.93
2018-09-14T01:06:18.304Z,11.93
2018-09-14T01:07:18.296Z,11.90
2018-09-14T01:08:18.293Z,11.84
2018-09-14T01:09:18.281Z,11.81
2018-09-14T01:10:18.275Z,11.79
2018-09-14T01:11:18.271Z,11.79
2018-09-14T01:12:18.266Z,11.74
2018-09-14T01:13:18.253Z,11.70
2018-09-14T01:14:18.249Z,11.70
2018-09-14T01:15:18.251Z,11.66
2018-09-14T01:16:18.236Z,11.70
2018-09-14T01:17:18.273Z,11.66
2018-09-14T01:18:18.227Z,11.66
2018-09-14T01:19:18.222Z,11.62
2018-09-14T01:20:18.333Z,11.59
2018-09-14T01:21:18.206Z,11.56
2018-09-14T01:22:18.198Z,11.51
2018-09-14T01:23:18.191Z,11.48
2018-09-14T01:24:18.183Z,11.51
2018-09-14T01:25:18.181Z,11.51
2018-09-14T01:26:18.174Z,11.42
2018-09-14T01:27:18.163Z,11.48
2018-09-14T01:28:18.158Z,11.42
2018-09-14T01:29:18.158Z,11.48
2018-09-14T01:30:18.152Z,11.46
2018-09-14T01:31:18.142Z,11.35
2018-09-14T01:32:18.136Z,11.33
2018-09-14T01:33:18.125Z,11.35
2018-09-14T01:34:18.118Z,11.33
2018-09-14T01:35:18.112Z,11.23
2018-09-14T01:36:18.105Z,11.19
2018-09-14T01:37:18.103Z,11.19
2018-09-14T01:38:18.097Z,11.19
2018-09-14T01:39:18.090Z,11.17
2018-09-14T01:40:18.083Z,11.16
2018-09-14T01:41:18.072Z,11.21
2018-09-14T01:42:18.064Z,11.27
2018-09-14T01:43:18.065Z,11.11
2018-09-14T01:44:18.056Z,11.19
2018-09-14T01:45:18.046Z,11.17
2018-09-14T01:46:18.040Z,11.16
2018-09-14T01:47:18.033Z,11.12
2018-09-14T01:48:18.027Z,11.17
2018-09-14T01:49:18.024Z,11.16
2018-09-14T01:50:18.017Z,11.08
2018-09-14T01:51:18.012Z,11.01
2018-09-14T01:52:18.006Z,10.94
2018-09-14T01:53:17.999Z,10.88
2018-09-14T01:54:17.986Z,10.78
2018-09-14T01:55:17.981Z,10.81
2018-09-14T01:56:17.974Z,10.69
2018-09-14T01:57:17.973Z,10.72
2018-09-14T01:58:17.967Z,10.68
2018-09-14T01:59:17.954Z,10.68
2018-09-14T02:00:17.948Z,10.65
2018-09-14T02:01:17.947Z,10.75
2018-09-14T02:02:17.939Z,10.78
2018-09-14T02:03:17.969Z,10.65
2018-09-14T02:04:17.926Z,10.66
2018-09-14T02:05:17.914Z,10.63
2018-09-14T02:06:17.907Z,10.72
2018-09-14T02:07:17.901Z,10.65
2018-09-14T02:08:17.894Z,10.70
2018-09-14T02:09:17.893Z,10.63
2018-09-14T02:10:17.885Z,10.72
2018-09-14T02:11:17.878Z,10.73
2018-09-14T02:12:17.871Z,10.75
2018-09-14T02:13:17.860Z,10.86
2018-09-14T02:14:17.853Z,10.86
2018-09-14T02:15:17.851Z,10.78
2018-09-14T02:16:17.844Z,10.84
2018-09-14T02:17:17.834Z,10.76
2018-09-14T02:18:17.826Z,10.65
2018-09-14T02:19:17.820Z,10.72
2018-09-14T02:20:17.816Z,10.73
2018-09-14T02:21:17.810Z,10.73
2018-09-14T02:22:17.805Z,10.63
2018-09-14T02:23:17.797Z,10.62
2018-09-14T02:24:17.790Z,10.66
2018-09-14T02:25:17.779Z,10.72
2018-09-14T02:26:17.771Z,10.66
2018-09-14T02:27:17.765Z,10.65
2018-09-14T02:28:17.759Z,10.68
2018-09-14T02:29:17.758Z,10.63
2018-09-14T02:30:17.752Z,10.66
2018-09-14T02:31:17.740Z,10.63
2018-09-14T02:32:17.733Z,10.65
2018-09-14T02:33:17.728Z,10.66
2018-09-14T02:34:17.722Z,10.68
2018-09-14T02:35:17.716Z,10.58
2018-09-14T02:36:17.711Z,10.63
2018-09-14T02:37:17.696Z,10.57
2018-09-14T02:38:17.689Z,10.51
2018-09-14T02:39:17.683Z,10.63
2018-09-14T02:40:17.679Z,10.58
2018-09-14T02:41:17.672Z,10.57
2018-09-14T02:42:17.666Z,10.52
2018-09-14T02:43:17.660Z,10.55
2018-09-14T02:44:17.653Z,10.55
2018-09-14T02:45:17.640Z,10.51
2018-09-14T02:46:17.633Z,10.44
2018-09-14T02:47:17.631Z,10.44
2018-09-14T02:48:17.625Z,10.43
2018-09-14T02:49:17.613Z,10.44
2018-09-14T02:50:17.607Z,10.39
2018-09-14T02:51:17.598Z,10.43
2018-09-14T02:52:17.606Z,10.44
2018-09-14T02:53:17.590Z,10.42
2018-09-14T02:54:17.584Z,10.46
2018-09-14T02:55:17.575Z,10.38
2018-09-14T02:56:17.568Z,10.46
2018-09-14T02:57:17.556Z,10.42
2018-09-14T02:58:17.550Z,10.31
2018-09-14T02:59:17.542Z,10.34
2018-09-14T03:00:17.643Z,10.39
2018-09-14T03:01:17.535Z,10.36
2018-09-14T03:02:17.527Z,10.39
2018-09-14T03:03:17.516Z,10.42
2018-09-14T03:04:17.509Z,10.29
2018-09-14T03:05:17.506Z,10.35
2018-09-14T03:06:17.499Z,10.47
2018-09-14T03:07:17.490Z,10.46
2018-09-14T03:08:17.484Z,10.32
2018-09-14T03:09:17.472Z,10.38
2018-09-14T03:10:17.464Z,10.38
2018-09-14T03:11:17.459Z,10.43
2018-09-14T03:12:17.452Z,10.46
2018-09-14T03:13:17.448Z,10.36
2018-09-14T03:14:17.442Z,10.51
2018-09-14T03:15:17.440Z,10.43
2018-09-14T03:16:17.429Z,10.44
2018-09-14T03:17:17.416Z,10.47
2018-09-14T03:18:17.411Z,10.35
2018-09-14T03:19:17.406Z,10.36
2018-09-14T03:20:17.399Z,10.32
2018-09-14T03:21:17.389Z,10.36
2018-09-14T03:22:17.379Z,10.31
2018-09-14T03:23:17.374Z,10.36
2018-09-14T03:24:17.366Z,10.32
2018-09-14T03:25:17.362Z,10.25
2018-09-14T03:26:17.357Z,10.25
2018-09-14T03:27:17.349Z,10.20
2018-09-14T03:28:17.344Z,10.26
2018-09-14T03:29:17.331Z,10.18
2018-09-14T03:30:17.324Z,10.22
2018-09-14T03:31:17.316Z,10.18
2018-09-14T03:32:17.420Z,10.13
2018-09-14T03:33:17.307Z,10.20
2018-09-14T03:34:17.298Z,10.25
2018-09-14T03:35:17.287Z,10.16
2018-09-14T03:36:17.281Z,10.17
2018-09-14T03:37:17.278Z,10.20
2018-09-14T03:38:17.270Z,10.18
2018-09-14T03:39:17.350Z,10.16
2018-09-14T03:40:17.257Z,10.22
2018-09-14T03:41:17.245Z,10.16
2018-09-14T03:42:17.237Z,10.14
2018-09-14T03:43:17.230Z,10.24
2018-09-14T03:44:17.224Z,10.18
2018-09-14T03:45:17.220Z,10.22
2018-09-14T03:46:17.229Z,10.26
2018-09-14T03:47:17.206Z,10.18
2018-09-14T03:48:17.200Z,10.22
2018-09-14T03:49:17.185Z,10.18
2018-09-14T03:50:17.180Z,10.22
2018-09-14T03:51:17.176Z,10.18
2018-09-14T03:52:17.170Z,10.17
2018-09-14T03:53:17.157Z,10.16
2018-09-14T03:54:17.151Z,10.16
2018-09-14T03:55:17.144Z,10.25
2018-09-14T03:56:17.141Z,10.18
2018-09-14T03:57:17.141Z,10.11
2018-09-14T03:58:17.127Z,10.07
2018-09-14T03:59:17.120Z,10.09
2018-09-14T04:00:17.112Z,10.09
2018-09-14T04:01:17.103Z,10.06
2018-09-14T04:02:17.094Z,10.02
2018-09-14T04:03:17.088Z,10.06
2018-09-14T04:04:17.078Z,10.01
2018-09-14T04:05:17.075Z,9.95
2018-09-14T04:06:17.068Z,9.99
2018-09-14T04:07:17.056Z,9.98
2018-09-14T04:08:17.048Z,10.04
2018-09-14T04:09:17.046Z,10.10
2018-09-14T04:10:17.041Z,10.09
2018-09-14T04:11:17.033Z,10.16
2018-09-14T04:12:17.026Z,10.17
2018-09-14T04:13:17.022Z,10.17
2018-09-14T04:14:17.006Z,10.24
2018-09-14T04:15:16.999Z,10.18
2018-09-14T04:16:16.992Z,10.22
2018-09-14T04:17:16.989Z,10.17
2018-09-14T04:18:16.981Z,10.14
2018-09-14T04:19:16.972Z,10.17
2018-09-14T04:20:16.974Z,10.16
2018-09-14T04:21:16.957Z,10.25
2018-09-14T04:22:16.949Z,10.13
2018-09-14T04:23:16.944Z,10.14
2018-09-14T04:24:16.950Z,10.09
2018-09-14T04:25:16.925Z,10.13
2018-09-14T04:26:16.917Z,10.13
2018-09-14T04:27:16.911Z,10.18
2018-09-14T04:28:16.905Z,10.06
2018-09-14T04:29:16.901Z,10.09
2018-09-14T04:30:16.893Z,10.06
2018-09-14T04:31:16.885Z,10.06
2018-09-14T04:32:16.879Z,9.98
2018-09-14T04:33:16.874Z,9.96
2018-09-14T04:34:16.860Z,9.93
2018-09-14T04:35:16.853Z,9.92
2018-09-14T04:36:16.846Z,9.91
2018-09-14T04:37:16.843Z,9.92
2018-09-14T04:38:16.948Z,9.96
2018-09-14T04:39:16.825Z,9.98
2018-09-14T04:40:16.817Z,10.01
2018-09-14T04:41:16.814Z,9.92
2018-09-14T04:42:16.806Z,10.04
2018-09-14T04:43:16.798Z,10.04
2018-09-14T04:44:16.791Z,9.98
2018-09-14T04:45:16.779Z,9.98
2018-09-14T04:46:16.772Z,10.04
2018-09-14T04:47:16.767Z,10.07
2018-09-14T04:48:16.769Z,10.04
2018-09-14T04:49:16.754Z,9.98
2018-09-14T04:50:16.746Z,10.04
2018-09-14T04:51:16.762Z,10.06
2018-09-14T04:52:16.733Z,9.96
2018-09-14T04:53:16.725Z,10.02
2018-09-14T04:54:16.713Z,10.02
2018-09-14T04:55:16.711Z,9.96
2018-09-14T04:56:16.706Z,10.06
2018-09-14T04:57:16.711Z,10.13
2018-09-14T04:58:16.684Z,10.06
2018-09-14T04:59:16.678Z,10.07
2018-09-14T05:00:16.670Z,10.14
2018-09-14T05:01:16.667Z,10.13
2018-09-14T05:02:16.659Z,10.14
2018-09-14T05:03:16.731Z,10.16
2018-09-14T05:04:16.644Z,10.17
2018-09-14T05:05:16.633Z,10.22
2018-09-14T05:06:16.624Z,10.13
2018-09-14T05:07:16.619Z,10.13
2018-09-14T05:08:16.612Z,10.14
2018-09-14T05:09:16.608Z,10.06
2018-09-14T05:10:16.601Z,10.13
2018-09-14T05:11:16.590Z,10.13
2018-09-14T05:12:16.582Z,10.06
2018-09-14T05:13:16.578Z,10.10
2018-09-14T05:14:16.616Z,10.14
2018-09-14T05:15:16.564Z,10.10
2018-09-14T05:16:16.560Z,10.04
2018-09-14T05:17:16.543Z,10.09
2018-09-14T05:18:16.540Z,10.10
2018-09-14T05:19:16.530Z,10.09
2018-09-14T05:20:16.523Z,10.20
2018-09-14T05:21:16.520Z,10.20
2018-09-14T05:22:16.512Z,10.14
2018-09-14T05:23:16.505Z,10.18
2018-09-14T05:24:16.592Z,10.17
2018-09-14T05:25:16.485Z,10.18
2018-09-14T05:26:16.479Z,10.24
2018-09-14T05:27:16.476Z,10.20
2018-09-14T05:28:16.470Z,10.36
2018-09-14T05:29:16.455Z,10.24
2018-09-14T05:30:16.450Z,10.32
2018-09-14T05:31:16.441Z,10.34
2018-09-14T05:32:16.436Z,10.35
2018-09-14T05:33:16.432Z,10.49
2018-09-14T05:34:16.424Z,10.55
2018-09-14T05:35:16.427Z,10.73
2018-09-14T05:36:16.414Z,10.91
2018-09-14T05:37:16.398Z,11.01
2018-09-14T05:38:16.455Z,11.19
2018-09-14T05:39:16.387Z,11.48
2018-09-14T05:40:16.378Z,11.51
2018-09-14T05:41:16.375Z,11.75
2018-09-14T05:42:16.370Z,11.96
2018-09-14T05:43:16.358Z,12.05
2018-09-14T05:44:16.350Z,12.25
2018-09-14T05:45:16.348Z,12.52
2018-09-14T05:46:16.342Z,12.71
2018-09-14T05:47:16.340Z,12.94
2018-09-14T05:48:16.330Z,13.12
2018-09-14T05:49:16.318Z,13.36
2018-09-14T05:50:16.313Z,13.54
2018-09-14T05:51:16.309Z,13.73
2018-09-14T05:52:16.301Z,14.02
2018-09-14T05:53:16.300Z,14.17
2018-09-14T05:54:16.293Z,14.26
2018-09-14T05:55:16.287Z,14.57
2018-09-14T05:56:16.282Z,14.69
2018-09-14T05:57:16.270Z,14.91
2018-09-14T05:58:16.266Z,14.86
2018-09-14T05:59:16.265Z,15.11
2018-09-14T06:00:16.261Z,15.31
2018-09-14T06:01:16.249Z,15.43
2018-09-14T06:02:16.250Z,15.59
2018-09-14T06:03:16.290Z,15.68
2018-09-14T06:04:16.237Z,15.91
2018-09-14T06:05:16.237Z,16.06
2018-09-14T06:06:16.231Z,16.13
2018-09-14T06:07:16.227Z,16.34
2018-09-14T06:08:16.222Z,16.59
2018-09-14T06:09:16.212Z,16.73
2018-09-14T06:10:16.209Z,16.88
2018-09-14T06:11:16.204Z,17.17
2018-09-14T06:12:16.201Z,17.35
2018-09-14T06:13:16.201Z,17.54
2018-09-14T06:14:16.253Z,17.74
2018-09-14T06:15:16.190Z,17.94
2018-09-14T06:16:16.187Z,18.05
2018-09-14T06:17:16.188Z,18.23
2018-09-14T06:18:16.183Z,18.42
2018-09-14T06:19:16.183Z,18.68
2018-09-14T06:20:16.179Z,18.76
2018-09-14T06:21:16.171Z,18.97
2018-09-14T06:22:16.168Z,19.24
2018-09-14T06:23:16.166Z,19.47
2018-09-14T06:24:16.164Z,19.85
2018-09-14T06:25:16.165Z,20.01
2018-09-14T06:26:16.163Z,20.26
2018-09-14T06:27:16.160Z,20.51
2018-09-14T06:28:16.159Z,20.64
2018-09-14T06:29:16.151Z,20.96
2018-09-14T06:30:16.175Z,21.13
2018-09-14T06:31:16.153Z,21.43
2018-09-14T06:32:16.153Z,21.63
2018-09-14T06:33:16.147Z,21.74
2018-09-14T06:34:16.148Z,21.94
2018-09-14T06:35:16.147Z,22.12
2018-09-14T06:36:16.147Z,22.38
2018-09-14T06:37:16.150Z,22.44
2018-09-14T06:38:16.189Z,22.64
2018-09-14T06:39:16.148Z,22.91
2018-09-14T06:40:16.148Z,23.29
2018-09-14T06:41:16.143Z,23.47
2018-09-14T06:42:16.144Z,23.63
2018-09-14T06:43:16.145Z,23.99
2018-09-14T06:44:16.145Z,24.15
2018-09-14T06:45:16.164Z,24.33
2018-09-14T06:46:16.152Z,24.37
2018-09-14T06:47:16.148Z,24.46
2018-09-14T06:48:16.150Z,24.46
2018-09-14T06:49:16.156Z,23.12
2018-09-14T06:50:16.157Z,22.67
2018-09-14T06:51:16.157Z,23.06
2018-09-14T06:52:16.159Z,22.63
2018-09-14T06:53:16.192Z,22.24
2018-09-14T06:54:16.158Z,21.83
2018-09-14T06:55:16.161Z,21.42
2018-09-14T06:56:16.165Z,21.73
2018-09-14T06:57:16.171Z,21.74
2018-09-14T06:58:16.175Z,21.90
2018-09-14T06:59:16.177Z,21.89
2018-09-14T07:00:16.319Z,22.39
2018-09-14T07:01:16.177Z,22.42
2018-09-14T07:02:16.180Z,22.24
2018-09-14T07:03:16.188Z,22.23
2018-09-14T07:04:16.192Z,21.68
2018-09-14T07:05:16.190Z,21.66
2018-09-14T07:06:16.209Z,21.70
2018-09-14T07:07:16.197Z,22.05
2018-09-14T07:08:16.200Z,21.55
2018-09-14T07:09:16.207Z,21.68
2018-09-14T07:10:16.210Z,22.06
2018-09-14T07:11:16.216Z,22.51
2018-09-14T07:12:16.225Z,22.59
2018-09-14T07:13:16.276Z,23.47
2018-09-14T07:14:16.220Z,24.02
2018-09-14T07:15:16.223Z,24.31
2018-09-14T07:16:16.228Z,24.84
2018-09-14T07:17:16.235Z,25.17
2018-09-14T07:18:16.240Z,25.59
2018-09-14T07:19:16.241Z,25.81
2018-09-14T07:20:16.242Z,26.01
2018-09-14T07:21:16.252Z,26.36
2018-09-14T07:22:16.301Z,26.86
2018-09-14T07:23:16.259Z,27.09
2018-09-14T07:24:16.281Z,27.09
2018-09-14T07:25:16.263Z,27.02
2018-09-14T07:26:16.271Z,26.49
2018-09-14T07:27:16.277Z,26.34
2018-09-14T07:28:16.292Z,26.34
2018-09-14T07:29:16.368Z,25.94
2018-09-14T07:30:16.322Z,26.03
2018-09-14T07:31:16.321Z,24.61
2018-09-14T07:32:16.304Z,23.86
2018-09-14T07:33:16.304Z,24.61
2018-09-14T07:34:16.308Z,23.45
2018-09-14T07:35:16.320Z,24.24
2018-09-14T07:36:16.325Z,24.89
2018-09-14T07:37:16.325Z,25.27
2018-09-14T07:38:16.332Z,25.67
2018-09-14T07:39:16.337Z,25.26
2018-09-14T07:40:16.345Z,25.31
2018-09-14T07:41:16.352Z,25.46
2018-09-14T07:42:16.358Z,25.54
2018-09-14T07:43:16.365Z,25.07
2018-09-14T07:44:16.372Z,25.48
2018-09-14T07:45:16.371Z,26.28
2018-09-14T07:46:16.379Z,26.93
2018-09-14T07:47:16.387Z,27.06
2018-09-14T07:48:16.462Z,26.49
2018-09-14T07:49:16.402Z,27.01
2018-09-14T07:50:16.409Z,27.27
2018-09-14T07:51:16.411Z,27.62
2018-09-14T07:52:16.417Z,27.98
2018-09-14T07:53:16.427Z,27.46
2018-09-14T07:54:16.435Z,26.78
2018-09-14T07:55:16.447Z,25.64
2018-09-14T07:56:16.450Z,25.74
2018-09-14T07:57:16.452Z,26.20
2018-09-14T07:58:16.459Z,26.35
2018-09-14T07:59:16.467Z,26.53
2018-09-14T08:00:16.475Z,26.94
2018-09-14T08:01:16.553Z,27.35
2018-09-14T08:02:16.493Z,27.91
2018-09-14T08:03:16.502Z,28.40
2018-09-14T08:04:16.509Z,28.42
2018-09-14T08:05:16.511Z,28.72
2018-09-14T08:06:16.621Z,29.25
2018-09-14T08:07:16.531Z,29.32
2018-09-14T08:08:16.538Z,29.57
2018-09-14T08:09:16.544Z,29.79
2018-09-14T08:10:16.550Z,29.69
2018-09-14T08:11:16.560Z,29.84
2018-09-14T08:12:16.569Z,30.15
2018-09-14T08:13:16.657Z,30.21
2018-09-14T08:14:16.592Z,30.53
2018-09-14T08:15:16.598Z,30.34
2018-09-14T08:16:16.608Z,28.94
2018-09-14T08:17:16.611Z,28.70
2018-09-14T08:18:16.621Z,28.85
2018-09-14T08:19:16.630Z,28.76
2018-09-14T08:20:16.773Z,27.91
2018-09-14T08:21:16.672Z,28.05
2018-09-14T08:22:16.663Z,27.88
2018-09-14T08:23:16.668Z,28.36
2018-09-14T08:24:16.679Z,29.14
2018-09-14T08:25:16.691Z,29.95
2018-09-14T08:26:16.702Z,30.56
2018-09-14T08:27:16.779Z,30.96
2018-09-14T08:28:16.723Z,31.04
2018-09-14T08:29:16.727Z,31.62
2018-09-14T08:30:16.738Z,31.99
2018-09-14T08:31:16.748Z,32.40
2018-09-14T08:32:16.798Z,32.46
2018-09-14T08:33:16.774Z,31.13
2018-09-14T08:34:16.785Z,30.29
2018-09-14T08:35:16.795Z,29.63
2018-09-14T08:36:16.808Z,29.86
2018-09-14T08:37:16.811Z,30.76
2018-09-14T08:38:16.823Z,31.53
2018-09-14T08:39:16.841Z,30.45
2018-09-14T08:40:16.853Z,29.18
2018-09-14T08:41:16.855Z,28.69
2018-09-14T08:42:16.866Z,28.62
2018-09-14T08:43:16.879Z,29.07
2018-09-14T08:44:16.890Z,29.79
2018-09-14T08:45:16.906Z,30.38
2018-09-14T08:46:16.917Z,30.96
2018-09-14T08:47:16.929Z,31.64
2018-09-14T08:48:16.942Z,32.51
2018-09-14T08:49:16.949Z,33.12
2018-09-14T08:50:16.961Z,33.00
2018-09-14T08:51:16.973Z,33.63
2018-09-14T08:52:16.984Z,32.87
2018-09-14T08:53:16.998Z,33.63
2018-09-14T08:54:17.018Z,34.18
2018-09-14T08:55:17.019Z,34.80
2018-09-14T08:56:17.034Z,35.21
2018-09-14T08:57:17.051Z,35.02
2018-09-14T08:58:17.061Z,34.83
2018-09-14T08:59:17.072Z,35.29
2018-09-14T09:00:17.086Z,35.64
2018-09-14T09:01:17.094Z,36.22
2018-09-14T09:02:17.110Z,36.71
2018-09-14T09:03:17.121Z,37.11
2018-09-14T09:04:17.134Z,37.15
2018-09-14T09:05:17.151Z,37.24
2018-09-14T09:06:17.164Z,36.44
2018-09-14T09:07:17.232Z,36.48
2018-09-14T09:08:17.199Z,36.67
2018-09-14T09:09:17.313Z,36.79
2018-09-14T09:10:17.221Z,37.02
2018-09-14T09:11:17.292Z,36.84
2018-09-14T09:12:17.248Z,36.53
2018-09-14T09:13:17.256Z,36.91
2018-09-14T09:14:17.275Z,36.41
2018-09-14T09:15:17.285Z,36.60
2018-09-14T09:16:17.299Z,36.21
2018-09-14T09:17:17.319Z,35.52
2018-09-14T09:18:17.332Z,35.55
2018-09-14T09:19:17.381Z,35.80
2018-09-14T09:20:17.365Z,35.83
2018-09-14T09:21:17.416Z,35.52
2018-09-14T09:22:17.384Z,36.13
2018-09-14T09:23:17.406Z,36.65
2018-09-14T09:24:17.415Z,37.08
2018-09-14T09:25:17.434Z,37.08
2018-09-14T09:26:17.461Z,36.21
2018-09-14T09:27:17.458Z,36.38
2018-09-14T09:28:17.474Z,36.40
2018-09-14T09:29:17.502Z,37.11
2018-09-14T09:30:17.508Z,37.24
2018-09-14T09:31:17.521Z,37.77
2018-09-14T09:32:17.538Z,37.65
2018-09-14T09:33:17.547Z,37.81
2018-09-14T09:34:17.562Z,38.22
2018-09-14T09:35:17.580Z,38.56
2018-09-14T09:36:17.593Z,38.90
2018-09-14T09:37:17.612Z,38.37
2018-09-14T09:38:17.628Z,38.43
2018-09-14T09:39:17.644Z,38.28
2018-09-14T09:40:17.659Z,38.26
2018-09-14T09:41:17.669Z,37.62
2018-09-14T09:42:17.685Z,37.27
2018-09-14T09:43:17.799Z,36.68
2018-09-14T09:44:17.721Z,36.84
2018-09-14T09:45:17.731Z,37.11
2018-09-14T09:46:17.747Z,36.97
2018-09-14T09:47:17.763Z,37.20
2018-09-14T09:48:17.777Z,37.59
2018-09-14T09:49:17.796Z,37.93
2018-09-14T09:50:17.812Z,38.06
2018-09-14T09:51:17.930Z,38.19
2018-09-14T09:52:17.844Z,38.12
2018-09-14T09:53:17.854Z,38.43
2018-09-14T09:54:17.878Z,37.69
2018-09-14T09:55:17.886Z,36.00
2018-09-14T09:56:17.902Z,35.92
2018-09-14T09:57:17.922Z,36.06
2018-09-14T09:58:17.938Z,36.46
2018-09-14T09:59:17.948Z,36.79
2018-09-14T10:00:17.964Z,34.34
2018-09-14T10:01:17.984Z,33.74
2018-09-14T10:02:18.000Z,33.89
2018-09-14T10:03:18.015Z,34.01
2018-09-14T10:04:18.036Z,33.05
2018-09-14T10:05:18.042Z,32.12
2018-09-14T10:06:18.056Z,30.49
2018-09-14T10:07:18.074Z,29.54
2018-09-14T10:08:18.088Z,30.40
2018-09-14T10:09:18.105Z,30.98
2018-09-14T10:10:18.121Z,31.84
2018-09-14T10:11:18.138Z,32.54
2018-09-14T10:12:18.153Z,33.50
2018-09-14T10:13:18.164Z,33.96
2018-09-14T10:14:18.177Z,34.37
2018-09-14T10:15:18.196Z,34.81
2018-09-14T10:16:18.214Z,34.93
2018-09-14T10:17:18.220Z,34.60
2018-09-14T10:18:18.235Z,34.93
2018-09-14T10:19:18.251Z,35.39
2018-09-14T10:20:18.269Z,35.21
2018-09-14T10:21:18.402Z,35.17
2018-09-14T10:22:18.298Z,34.84
2018-09-14T10:23:18.313Z,34.81
2018-09-14T10:24:18.327Z,34.80
2018-09-14T10:25:18.335Z,35.29
2018-09-14T10:26:18.352Z,35.91
2018-09-14T10:27:18.365Z,36.00
2018-09-14T10:28:18.382Z,36.35
2018-09-14T10:29:18.398Z,36.49
2018-09-14T10:30:18.412Z,36.79
2018-09-14T10:31:18.422Z,37.01
2018-09-14T10:32:18.436Z,37.04
2018-09-14T10:33:18.458Z,37.20
2018-09-14T10:34:18.469Z,37.54
2018-09-14T10:35:18.482Z,37.66
2018-09-14T10:36:18.496Z,37.60
2018-09-14T10:37:18.507Z,37.35
2018-09-14T10:38:18.521Z,37.23
2018-09-14T10:39:18.535Z,36.84
2018-09-14T10:40:18.555Z,36.89
2018-09-14T10:41:18.569Z,36.57
2018-09-14T10:42:18.583Z,35.85
2018-09-14T10:43:18.598Z,36.16
2018-09-14T10:44:18.613Z,36.44
2018-09-14T10:45:18.685Z,36.84
2018-09-14T10:46:18.637Z,36.65
2018-09-14T10:47:18.657Z,36.48
2018-09-14T10:48:18.676Z,36.75
2018-09-14T10:49:18.680Z,37.23
2018-09-14T10:50:18.698Z,37.24
2018-09-14T10:51:18.711Z,37.01
2018-09-14T10:52:18.727Z,37.53
2018-09-14T10:53:18.742Z,37.99
2018-09-14T10:54:18.757Z,37.88
2018-09-14T10:55:18.826Z,37.54
2018-09-14T10:56:18.789Z,37.62
2018-09-14T10:57:18.797Z,36.46
2018-09-14T10:58:18.814Z,35.28
2018-09-14T10:59:18.831Z,34.88
2018-09-14T11:00:18.844Z,35.20
2018-09-14T11:01:18.863Z,35.44
2018-09-14T11:02:18.877Z,34.19
2018-09-14T11:03:18.889Z,33.49
2018-09-14T11:04:18.960Z,32.22
2018-09-14T11:05:18.922Z,31.67
2018-09-14T11:06:18.938Z,31.10
2018-09-14T11:07:18.951Z,30.90
2018-09-14T11:08:18.964Z,31.05
2018-09-14T11:09:18.973Z,31.38
2018-09-14T11:10:18.985Z,31.84
2018-09-14T11:11:18.998Z,31.82
2018-09-14T11:12:19.011Z,31.71
2018-09-14T11:13:19.028Z,31.78
2018-09-14T11:14:19.040Z,31.62
2018-09-14T11:15:19.053Z,32.32
2018-09-14T11:16:19.064Z,32.95
2018-09-14T11:17:19.074Z,32.21
2018-09-14T11:18:19.082Z,31.84
2018-09-14T11:19:19.097Z,30.03
2018-09-14T11:20:19.110Z,29.39
2018-09-14T11:21:19.121Z,28.89
2018-09-14T11:22:19.129Z,28.08
2018-09-14T11:23:19.139Z,27.91
2018-09-14T11:24:19.149Z,27.83
2018-09-14T11:25:19.244Z,27.16
2018-09-14T11:26:19.175Z,26.65
2018-09-14T11:27:19.185Z,26.68
2018-09-14T11:28:19.195Z,26.68
2018-09-14T11:29:19.199Z,26.50
2018-09-14T11:30:19.208Z,26.69
2018-09-14T11:31:19.217Z,26.72
2018-09-14T11:32:19.240Z,26.73
2018-09-14T11:33:19.237Z,26.78
2018-09-14T11:34:19.245Z,26.11
2018-09-14T11:35:19.249Z,25.94
2018-09-14T11:36:19.255Z,25.76
2018-09-14T11:37:19.317Z,26.06
2018-09-14T11:38:19.411Z,26.16
2018-09-14T11:39:19.281Z,26.08
2018-09-14T11:40:19.289Z,25.97
2018-09-14T11:41:19.289Z,26.06
2018-09-14T11:42:19.296Z,25.98
2018-09-14T11:43:19.303Z,26.03
2018-09-14T11:44:19.313Z,26.17
2018-09-14T11:45:19.444Z,26.31
2018-09-14T11:46:19.325Z,26.03
2018-09-14T11:47:19.329Z,26.21
2018-09-14T11:48:19.335Z,25.96
2018-09-14T11:49:19.337Z,25.75
2018-09-14T11:50:19.341Z,25.63
2018-09-14T11:51:19.351Z,25.67
2018-09-14T11:52:19.358Z,25.83
2018-09-14T11:53:19.359Z,25.72
2018-09-14T11:54:19.477Z,25.83
2018-09-14T11:55:19.371Z,25.94
2018-09-14T11:56:19.375Z,25.67
2018-09-14T11:57:19.382Z,25.64
2018-09-14T11:58:19.437Z,25.29
2018-09-14T11:59:19.392Z,24.98
2018-09-14T12:00:19.398Z,24.49
2018-09-14T12:01:19.420Z,24.55
2018-09-14T12:02:19.402Z,24.37
2018-09-14T12:03:19.406Z,24.60
2018-09-14T12:04:19.430Z,24.66
2018-09-14T12:05:19.420Z,24.74
2018-09-14T12:06:19.424Z,24.80
2018-09-14T12:07:19.425Z,24.60
2018-09-14T12:08:19.429Z,24.74
2018-09-14T12:09:19.437Z,24.98
2018-09-14T12:10:19.442Z,25.12
2018-09-14T12:11:19.446Z,25.11
2018-09-14T12:12:19.451Z,25.26
2018-09-14T12:13:19.449Z,25.39
2018-09-14T12:14:19.457Z,25.44
2018-09-14T12:15:19.457Z,25.31
2018-09-14T12:16:19.462Z,25.54
2018-09-14T12:17:19.471Z,25.67
2018-09-14T12:18:19.473Z,25.75
2018-09-14T12:19:19.482Z,25.89
2018-09-14T12:20:19.482Z,25.97
2018-09-14T12:21:19.480Z,26.08
2018-09-14T12:22:19.500Z,26.21
2018-09-14T12:23:19.494Z,25.82
2018-09-14T12:24:19.498Z,25.69
2018-09-14T12:25:19.496Z,25.63
2018-09-14T12:26:19.501Z,25.61
2018-09-14T12:27:19.505Z,25.74
2018-09-14T12:28:19.550Z,25.39
2018-09-14T12:29:19.516Z,25.48
2018-09-14T12:30:19.520Z,25.49
2018-09-14T12:31:19.524Z,25.49
2018-09-14T12:32:19.532Z,25.49
2018-09-14T12:33:19.530Z,25.54
2018-09-14T12:34:19.529Z,25.56
2018-09-14T12:35:19.535Z,25.66
2018-09-14T12:36:19.538Z,25.78
2018-09-14T12:37:19.546Z,25.89
2018-09-14T12:38:19.550Z,26.13
2018-09-14T12:39:19.549Z,26.17
2018-09-14T12:40:19.551Z,26.28
2018-09-14T12:41:19.560Z,26.35
2018-09-14T12:42:19.564Z,26.49
2018-09-14T12:43:19.568Z,26.27
2018-09-14T12:44:19.570Z,26.38
2018-09-14T12:45:19.568Z,26.35
2018-09-14T12:46:19.574Z,26.50
2018-09-14T12:47:19.578Z,26.56
2018-09-14T12:48:19.581Z,26.64
2018-09-14T12:49:19.588Z,26.73
2018-09-14T12:50:19.593Z,26.79
2018-09-14T12:51:19.597Z,26.83
2018-09-14T12:52:19.600Z,26.93
2018-09-14T12:53:19.601Z,26.81